Time;durP1;ratioP1;P1;durP2;ratioP2;P2;SDS_P1;SDS_P2;PMS_P1;PMS_P2;Temp;Humidity;BMP_temperature;BMP_pressure;BME280_temperature;BME280_humidity;BME280_pressure;Samples;Min_cycle;Max_cycle;Signal;HPM_P1;HPM_P2
2024/01/23 00:01:59;;;;;;;78.57;44.83;;;;;;;-5.59;55.25;96027.78;5021063;28;20229;-75
2024/01/23 00:04:25;;;;;;;76.70;44.17;;;;;;;-5.54;54.59;96020.03;5025016;28;20226;-75
2024/01/23 00:06:50;;;;;;;77.03;44.97;;;;;;;-5.75;55.17;96026.41;5021649;28;20226;-74
2024/01/23 00:09:16;;;;;;;79.97;44.40;;;;;;;-5.71;54.55;96022.94;5024382;28;20175;-69
2024/01/23 00:11:42;;;;;;;74.30;43.13;;;;;;;-5.90;54.88;96017.31;5026397;28;20184;-73
2024/01/23 00:14:08;;;;;;;74.17;42.60;;;;;;;-5.84;55.15;96029.16;5024066;28;20210;-72
2024/01/23 00:16:34;;;;;;;71.70;43.33;;;;;;;-5.87;54.90;96024.94;5029852;28;20225;-73
2024/01/23 00:18:59;;;;;;;77.47;42.93;;;;;;;-6.01;54.91;96025.22;5022975;28;20221;-75
2024/01/23 00:21:25;;;;;;;78.20;44.10;;;;;;;-5.86;54.89;96024.03;5029506;28;20222;-74
2024/01/23 00:23:51;;;;;;;77.40;45.37;;;;;;;-6.01;54.52;96009.00;5030687;28;20264;-75
2024/01/23 00:26:17;;;;;;;77.83;44.60;;;;;;;-6.10;54.77;96011.72;5028640;28;20226;-75
2024/01/23 00:28:42;;;;;;;75.50;45.23;;;;;;;-6.28;55.61;96006.06;5025718;28;20218;-74
2024/01/23 00:31:08;;;;;;;79.63;44.77;;;;;;;-5.96;54.56;95991.84;5021164;28;20229;-75
2024/01/23 00:33:33;;;;;;;78.87;46.20;;;;;;;-5.80;54.61;95990.66;5030849;28;20304;-75
2024/01/23 00:35:58;;;;;;;81.50;47.87;;;;;;;-5.93;54.78;96007.13;5027055;28;20193;-75
2024/01/23 00:38:24;;;;;;;88.27;50.83;;;;;;;-6.13;55.47;95988.75;5027422;28;20219;-75
2024/01/23 00:40:49;;;;;;;84.20;47.37;;;;;;;-6.06;55.13;95987.78;5016610;28;20222;-75
2024/01/23 00:43:15;;;;;;;86.33;49.13;;;;;;;-6.01;55.12;95981.69;5025032;28;20225;-73
2024/01/23 00:45:40;;;;;;;87.03;48.00;;;;;;;-6.01;54.49;95981.69;5029955;28;20245;-71
2024/01/23 00:48:06;;;;;;;84.63;48.70;;;;;;;-6.11;55.38;95987.84;5021185;28;20190;-73
2024/01/23 00:50:32;;;;;;;87.77;50.13;;;;;;;-6.04;54.74;95978.31;5011148;28;20210;-72
2024/01/23 00:52:57;;;;;;;83.97;48.63;;;;;;;-6.03;55.44;95985.97;5024072;28;20341;-72
2024/01/23 00:55:23;;;;;;;85.90;50.27;;;;;;;-6.08;55.77;95986.94;5028224;28;20217;-69
2024/01/23 00:57:48;;;;;;;88.37;49.90;;;;;;;-6.07;55.93;95980.94;5023338;28;20227;-75
2024/01/23 01:00:14;;;;;;;87.50;49.47;;;;;;;-5.98;55.13;95983.34;5023471;28;20332;-74
2024/01/23 01:02:39;;;;;;;87.27;49.37;;;;;;;-5.95;55.33;95967.91;5025977;28;20206;-75
2024/01/23 01:05:05;;;;;;;87.70;50.27;;;;;;;-5.87;55.56;95971.16;5027229;28;20222;-70
2024/01/23 01:07:30;;;;;;;90.23;50.17;;;;;;;-5.86;55.57;95967.69;5025201;28;20225;-70
2024/01/23 01:09:56;;;;;;;92.03;51.13;;;;;;;-5.76;55.04;95966.66;5026923;28;20222;-74
2024/01/23 01:12:21;;;;;;;90.90;49.53;;;;;;;-5.92;55.19;95967.00;5024646;28;20187;-73
2024/01/23 01:14:47;;;;;;;85.27;49.93;;;;;;;-5.96;55.28;95973.06;5027367;28;20212;-74
2024/01/23 01:17:13;;;;;;;88.83;49.13;;;;;;;-6.00;54.78;95962.03;5024901;28;20225;-74
2024/01/23 01:19:38;;;;;;;83.23;49.10;;;;;;;-5.93;54.39;95958.47;5029356;28;20261;-73
2024/01/23 01:22:05;;;;;;;87.50;49.03;;;;;;;-5.99;54.76;95950.91;5030339;28;20222;-72
2024/01/23 01:24:31;;;;;;;88.00;51.00;;;;;;;-5.98;54.51;95946.66;5025974;28;20240;-74
2024/01/23 01:26:57;;;;;;;85.10;49.50;;;;;;;-5.94;54.57;95944.00;5028069;28;20186;-73
2024/01/23 01:29:22;;;;;;;94.80;50.30;;;;;;;-6.17;55.14;95946.13;5024514;28;20278;-73
2024/01/23 01:31:47;;;;;;;87.53;50.80;;;;;;;-6.06;55.34;95946.81;5024125;28;20218;-73
2024/01/23 01:34:13;;;;;;;84.23;48.63;;;;;;;-5.93;55.31;95948.22;5027577;28;20220;-73
2024/01/23 01:36:38;;;;;;;84.87;49.53;;;;;;;-5.98;54.84;95942.38;5027979;28;20222;-74
2024/01/23 01:39:04;;;;;;;76.17;46.60;;;;;;;-6.02;55.14;95933.88;5023555;28;20213;-74
2024/01/23 01:41:29;;;;;;;81.43;47.37;;;;;;;-6.06;54.77;95927.16;5026704;28;20234;-76
2024/01/23 01:43:54;;;;;;;79.73;46.90;;;;;;;-5.97;54.60;95933.81;5033438;28;20256;-76
2024/01/23 01:46:23;;;;;;;88.57;48.80;;;;;;;-6.21;55.10;95933.41;5023239;28;20222;-76
2024/01/23 01:48:49;;;;;;;80.27;48.07;;;;;;;-6.17;54.75;95931.66;5027219;28;20281;-76
2024/01/23 01:51:17;;;;;;;79.90;47.47;;;;;;;-6.10;55.01;95928.06;5028680;28;20235;-76
2024/01/23 01:53:43;;;;;;;78.70;48.07;;;;;;;-6.14;54.70;95938.44;5027067;28;20186;-76
2024/01/23 01:56:09;;;;;;;85.47;49.47;;;;;;;-6.28;55.42;95930.97;5031349;28;20225;-76
2024/01/23 01:58:36;;;;;;;90.70;48.90;;;;;;;-6.24;54.98;95930.06;5024309;28;20317;-76
2024/01/23 02:01:02;;;;;;;80.17;47.03;;;;;;;-6.47;55.50;95928.78;5034016;28;20230;-76
2024/01/23 02:03:28;;;;;;;86.40;49.37;;;;;;;-6.37;55.08;95931.16;5032863;28;20221;-76
2024/01/23 02:05:55;;;;;;;86.00;48.33;;;;;;;-6.39;55.04;95926.06;5034799;28;20190;-76
2024/01/23 02:08:20;;;;;;;85.23;49.23;;;;;;;-6.30;55.07;95925.91;5025133;28;20218;-76
2024/01/23 02:10:46;;;;;;;86.53;50.40;;;;;;;-6.51;55.49;95921.19;5028336;28;20223;-76
2024/01/23 02:13:11;;;;;;;93.00;50.20;;;;;;;-6.28;54.87;95918.19;5025034;28;20296;-75
2024/01/23 02:15:37;;;;;;;85.30;51.13;;;;;;;-6.35;54.96;95914.91;5028599;28;20215;-75
2024/01/23 02:18:02;;;;;;;96.00;52.37;;;;;;;-6.59;55.06;95905.13;5032077;28;20182;-75
2024/01/23 02:20:28;;;;;;;97.90;54.57;;;;;;;-6.49;54.88;95914.31;5028762;28;20221;-75
2024/01/23 02:22:53;;;;;;;103.93;54.00;;;;;;;-6.52;54.94;95912.66;5032034;28;20244;-76
2024/01/23 02:25:19;;;;;;;103.40;54.43;;;;;;;-6.42;54.90;95915.88;5024279;28;20225;-76
2024/01/23 02:27:44;;;;;;;102.33;54.17;;;;;;;-6.57;55.31;95916.19;5021438;28;20248;-76
2024/01/23 02:30:11;;;;;;;102.73;52.83;;;;;;;-6.56;54.86;95903.34;5025299;28;20288;-76
2024/01/23 02:32:36;;;;;;;98.70;55.33;;;;;;;-6.58;54.56;95911.91;5032038;28;20186;-75
2024/01/23 02:35:01;;;;;;;93.57;53.10;;;;;;;-6.79;55.16;95906.31;5027958;28;20222;-75
2024/01/23 02:37:27;;;;;;;109.73;55.90;;;;;;;-6.84;55.57;95897.88;5029863;28;20218;-74
2024/01/23 02:39:53;;;;;;;100.07;52.20;;;;;;;-6.78;55.56;95895.22;5026056;28;20222;-75
2024/01/23 02:42:18;;;;;;;94.37;51.40;;;;;;;-6.66;55.33;95892.41;5022407;28;20606;-73
2024/01/23 02:44:45;;;;;;;97.87;53.67;;;;;;;-7.22;56.40;95889.09;5025423;28;20189;-74
2024/01/23 02:47:14;;;;;;;104.27;53.00;;;;;;;-7.33;56.29;95883.31;5029944;28;20218;-74
2024/01/23 02:49:39;;;;;;;98.63;52.47;;;;;;;-7.04;56.87;95879.47;5030323;28;20248;-73
2024/01/23 02:52:05;;;;;;;93.40;51.93;;;;;;;-6.99;56.77;95882.78;5023963;28;20223;-74
2024/01/23 02:54:33;;;;;;;94.97;51.90;;;;;;;-6.76;55.83;95872.16;5033577;28;20301;-74
2024/01/23 02:56:59;;;;;;;99.10;51.87;;;;;;;-6.78;56.29;95876.47;5032279;28;20182;-74
2024/01/23 02:59:25;;;;;;;97.37;54.03;;;;;;;-6.72;55.61;95866.97;5030098;28;20234;-74
2024/01/23 03:01:50;;;;;;;97.03;52.30;;;;;;;-6.86;55.81;95874.03;5023361;28;20215;-74
2024/01/23 03:04:16;;;;;;;95.90;52.27;;;;;;;-6.89;55.91;95861.31;5027521;28;20289;-75
2024/01/23 03:06:41;;;;;;;88.83;50.07;;;;;;;-6.78;55.59;95856.00;5029016;28;20214;-75
2024/01/23 03:09:10;;;;;;;94.67;51.23;;;;;;;-6.90;55.92;95850.22;5021845;28;20183;-74
2024/01/23 03:11:39;;;;;;;96.07;50.47;;;;;;;-6.92;56.20;95851.16;5028251;28;20190;-72
2024/01/23 03:14:05;;;;;;;94.47;50.13;;;;;;;-6.87;56.19;95851.88;5029162;28;20276;-73
2024/01/23 03:16:30;;;;;;;100.23;52.10;;;;;;;-6.91;56.56;95842.59;5028679;28;20214;-73
2024/01/23 03:18:56;;;;;;;96.97;52.23;;;;;;;-6.79;55.94;95837.28;5032452;28;20245;-73
2024/01/23 03:21:21;;;;;;;96.20;52.33;;;;;;;-6.98;56.43;95846.13;5029162;28;20243;-73
2024/01/23 03:23:47;;;;;;;102.07;52.53;;;;;;;-6.92;56.62;95846.03;5020489;28;20193;-73
2024/01/23 03:26:12;;;;;;;90.93;49.27;;;;;;;-6.95;56.33;95833.28;5027211;28;20237;-73
2024/01/23 03:28:37;;;;;;;94.23;49.70;;;;;;;-6.88;56.88;95829.75;5030983;28;20214;-73
2024/01/23 03:31:06;;;;;;;100.50;51.97;;;;;;;-7.05;57.15;95827.50;5018663;28;20296;-72
2024/01/23 03:33:32;;;;;;;98.27;50.60;;;;;;;-7.07;56.65;95815.63;5032659;28;20222;-72
2024/01/23 03:35:58;;;;;;;91.93;49.63;;;;;;;-6.99;56.57;95808.66;5015459;28;20186;-72
2024/01/23 03:38:23;;;;;;;95.43;49.50;;;;;;;-7.08;56.43;95817.34;5029289;28;20221;-72
2024/01/23 03:40:48;;;;;;;95.20;51.17;;;;;;;-7.12;57.00;95803.75;5022114;28;20254;-72
2024/01/23 03:43:14;;;;;;;90.10;47.63;;;;;;;-7.11;56.96;95796.91;5022851;28;20219;-73
2024/01/23 03:45:39;;;;;;;100.03;49.83;;;;;;;-7.06;57.04;95807.06;5025448;28;20222;-73
2024/01/23 03:48:06;;;;;;;103.60;49.30;;;;;;;-7.20;57.16;95805.59;5028248;28;20233;-73
2024/01/23 03:50:32;;;;;;;93.37;49.47;;;;;;;-7.21;57.06;95805.63;5031210;28;20272;-73
2024/01/23 03:52:57;;;;;;;97.37;49.67;;;;;;;-7.33;56.69;95802.38;5021465;28;20225;-73
2024/01/23 03:55:22;;;;;;;96.37;48.17;;;;;;;-7.02;55.93;95801.03;5031564;28;20225;-73
2024/01/23 03:57:48;;;;;;;100.33;50.10;;;;;;;-7.13;56.43;95798.69;5022196;28;20301;-73
2024/01/23 04:00:14;;;;;;;88.80;46.27;;;;;;;-7.29;56.45;95792.97;5027461;28;20199;-73
2024/01/23 04:02:40;;;;;;;88.73;46.53;;;;;;;-7.38;57.09;95800.78;5010339;28;20187;-73
2024/01/23 04:05:07;;;;;;;94.17;48.33;;;;;;;-7.68;57.32;95792.75;5019204;28;20217;-73
2024/01/23 04:07:32;;;;;;;91.93;46.97;;;;;;;-7.52;57.14;95798.47;5023574;28;20219;-75
2024/01/23 04:09:58;;;;;;;87.53;44.67;;;;;;;-7.48;56.71;95794.13;5025525;28;20273;-74
2024/01/23 04:12:23;;;;;;;83.60;45.40;;;;;;;-7.83;57.25;95785.31;5031232;28;20186;-73
2024/01/23 04:14:49;;;;;;;84.77;44.40;;;;;;;-7.79;58.02;95792.06;5027659;28;20191;-73
2024/01/23 04:17:15;;;;;;;86.43;45.80;;;;;;;-7.60;57.82;95792.63;5023487;28;20222;-74
2024/01/23 04:19:41;;;;;;;86.70;47.20;;;;;;;-7.56;56.98;95795.13;5017217;28;20224;-74
2024/01/23 04:22:06;;;;;;;84.20;45.37;;;;;;;-7.74;57.49;95799.66;5021246;28;20230;-74
2024/01/23 04:24:32;;;;;;;86.17;45.20;;;;;;;-7.57;56.64;95795.97;5028207;28;20230;-74
2024/01/23 04:26:58;;;;;;;83.00;45.30;;;;;;;-7.55;57.09;95791.69;5025190;28;20228;-74
2024/01/23 04:29:23;;;;;;;83.87;44.23;;;;;;;-7.87;57.14;95789.63;5024723;28;20210;-74
2024/01/23 04:31:49;;;;;;;87.03;44.67;;;;;;;-7.71;57.60;95790.25;5030031;28;20301;-74
2024/01/23 04:34:14;;;;;;;84.63;45.37;;;;;;;-7.60;56.89;95787.53;5027724;28;20215;-74
2024/01/23 04:36:40;;;;;;;81.43;46.00;;;;;;;-7.53;56.65;95788.28;5030431;28;20222;-74
2024/01/23 04:39:05;;;;;;;93.47;46.77;;;;;;;-7.90;56.95;95776.91;5021795;28;20221;-74
2024/01/23 04:41:30;;;;;;;89.50;46.97;;;;;;;-7.84;57.50;95775.97;5031737;28;20217;-75
2024/01/23 04:43:56;;;;;;;86.67;47.83;;;;;;;-7.90;57.10;95774.38;5021037;28;20229;-74
2024/01/23 04:46:21;;;;;;;91.17;47.57;;;;;;;-7.87;57.32;95771.75;5013333;28;20233;-74
2024/01/23 04:48:47;;;;;;;87.67;47.87;;;;;;;-7.84;57.23;95773.44;5019992;28;20225;-73
2024/01/23 04:51:13;;;;;;;85.83;47.00;;;;;;;-7.71;57.58;95780.03;5025505;28;20281;-75
2024/01/23 04:53:38;;;;;;;90.17;46.50;;;;;;;-7.46;57.24;95774.53;5030878;28;20196;-75
2024/01/23 04:56:04;;;;;;;94.10;48.50;;;;;;;-7.57;58.16;95782.34;5027720;28;20226;-74
2024/01/23 04:58:29;;;;;;;88.93;45.87;;;;;;;-7.58;57.79;95778.97;5025044;28;20321;-74
2024/01/23 05:00:55;;;;;;;85.07;45.80;;;;;;;-7.53;57.03;95788.28;5025830;28;20226;-77
2024/01/23 05:03:21;;;;;;;88.93;45.30;;;;;;;-7.47;57.89;95793.28;5031170;28;20231;-73
2024/01/23 05:05:46;;;;;;;85.50;44.57;;;;;;;-7.45;57.55;95789.00;5025812;28;20194;-74
2024/01/23 05:08:12;;;;;;;88.77;46.63;;;;;;;-7.62;58.06;95784.13;5025110;28;20218;-78
2024/01/23 05:10:38;;;;;;;88.53;45.67;;;;;;;-7.59;58.14;95787.50;5029758;28;20229;-72
2024/01/23 05:13:03;;;;;;;85.97;46.07;;;;;;;-7.81;58.69;95788.69;5021547;28;20318;-77
2024/01/23 05:15:29;;;;;;;86.47;45.60;;;;;;;-7.94;59.11;95782.91;5027778;28;20249;-76
2024/01/23 05:17:54;;;;;;;93.70;47.90;;;;;;;-8.01;59.20;95779.63;5023056;28;20216;-77
2024/01/23 05:20:20;;;;;;;86.70;45.87;;;;;;;-8.19;60.12;95782.44;5020835;28;20222;-76
2024/01/23 05:22:45;;;;;;;99.47;47.17;;;;;;;-8.02;59.55;95787.28;5027276;28;20225;-76
2024/01/23 05:25:11;;;;;;;90.87;48.03;;;;;;;-7.74;58.87;95774.97;5022141;28;20229;-76
2024/01/23 05:27:36;;;;;;;87.10;46.30;;;;;;;-7.81;59.38;95776.75;5021219;28;20237;-76
2024/01/23 05:30:05;;;;;;;90.83;45.90;;;;;;;-7.42;58.62;95777.00;5021422;28;20236;-76
2024/01/23 05:32:30;;;;;;;95.90;48.37;;;;;;;-7.53;57.90;95770.41;5042863;28;20217;-76
2024/01/23 05:34:56;;;;;;;98.73;47.97;;;;;;;-7.76;59.23;95771.59;5049781;28;20229;-77
2024/01/23 05:37:21;;;;;;;89.90;48.30;;;;;;;-7.45;58.74;95771.13;5051686;28;20221;-80
2024/01/23 05:39:47;;;;;;;99.07;50.53;;;;;;;-7.62;59.46;95764.53;5045519;28;20240;-77
2024/01/23 05:42:12;;;;;;;98.87;48.37;;;;;;;-7.56;59.30;95764.47;5043186;28;20190;-77
2024/01/23 05:44:38;;;;;;;92.07;47.87;;;;;;;-7.52;59.25;95756.75;5050583;28;20186;-76
2024/01/23 05:47:03;;;;;;;92.27;46.10;;;;;;;-7.43;59.11;95764.25;5045483;28;20225;-76
2024/01/23 05:49:29;;;;;;;94.57;47.47;;;;;;;-7.41;58.85;95752.31;5046312;28;20214;-78
2024/01/23 05:51:54;;;;;;;92.27;48.43;;;;;;;-7.32;58.45;95752.16;5048938;28;20260;-77
2024/01/23 05:54:20;;;;;;;96.90;47.33;;;;;;;-7.52;59.07;95743.97;5048722;28;20197;-77
2024/01/23 05:56:45;;;;;;;95.40;47.93;;;;;;;-7.49;59.22;95734.53;5052844;28;20185;-77
2024/01/23 05:59:11;;;;;;;88.77;49.37;;;;;;;-7.48;59.28;95737.94;5046034;28;20238;-76
2024/01/23 06:01:36;;;;;;;102.50;50.23;;;;;;;-7.46;58.91;95739.59;5052126;28;20233;-77
2024/01/23 06:04:02;;;;;;;97.23;51.10;;;;;;;-7.44;58.67;95737.03;5047821;28;20226;-79
2024/01/23 06:06:27;;;;;;;100.90;52.00;;;;;;;-7.45;59.09;95741.31;5053464;28;20213;-78
2024/01/23 06:08:53;;;;;;;100.23;51.37;;;;;;;-7.52;59.08;95728.66;5053669;28;20184;-78
2024/01/23 06:11:18;;;;;;;95.73;49.97;;;;;;;-7.39;58.67;95741.19;5042304;28;20304;-79
2024/01/23 06:13:44;;;;;;;93.47;49.23;;;;;;;-7.40;58.83;95738.69;5051463;28;20249;-78
2024/01/23 06:16:10;;;;;;;99.93;50.57;;;;;;;-7.46;58.32;95736.22;5044109;28;20229;-78
2024/01/23 06:18:36;;;;;;;92.60;48.20;;;;;;;-7.15;58.02;95745.03;5043205;28;20218;-80
2024/01/23 06:21:04;;;;;;;94.63;47.77;;;;;;;-7.26;58.72;95746.94;5047072;28;20186;-73
2024/01/23 06:23:30;;;;;;;96.87;48.93;;;;;;;-7.38;59.27;95745.41;5046376;28;20213;-74
2024/01/23 06:25:55;;;;;;;100.30;49.40;;;;;;;-7.34;58.79;95753.88;5051299;28;20218;-74
2024/01/23 06:28:23;;;;;;;91.20;48.30;;;;;;;-7.55;58.91;95771.25;5052692;28;20280;-73
2024/01/23 06:30:48;;;;;;;92.37;48.97;;;;;;;-7.93;59.80;95774.41;5048195;28;20221;-74
2024/01/23 06:33:14;;;;;;;96.00;46.63;;;;;;;-7.67;59.58;95776.56;5050145;28;20691;-72
2024/01/23 06:35:39;;;;;;;88.73;48.50;;;;;;;-7.63;60.02;95772.25;5046165;28;20273;-74
2024/01/23 06:38:05;;;;;;;99.37;48.73;;;;;;;-7.90;60.66;95778.63;5050194;28;20209;-74
2024/01/23 06:40:30;;;;;;;86.27;46.70;;;;;;;-7.50;60.52;95788.22;5052388;28;20365;-74
2024/01/23 06:42:56;;;;;;;101.17;50.60;;;;;;;-7.41;59.95;95794.00;5047700;28;20213;-74
2024/01/23 06:45:22;;;;;;;96.00;48.93;;;;;;;-7.62;60.57;95789.25;5052784;28;20182;-74
2024/01/23 06:47:47;;;;;;;97.63;50.00;;;;;;;-7.37;60.51;95795.66;5050680;28;20185;-74
2024/01/23 06:50:13;;;;;;;99.27;47.93;;;;;;;-7.34;60.27;95794.78;5051337;28;20228;-73
2024/01/23 06:52:38;;;;;;;92.00;47.40;;;;;;;-7.01;59.73;95803.56;5049987;28;20222;-75
2024/01/23 06:55:04;;;;;;;85.23;48.13;;;;;;;-7.19;60.21;95804.75;5046131;28;20224;-74
2024/01/23 06:57:30;;;;;;;90.63;47.40;;;;;;;-6.83;59.26;95801.53;5048795;28;20213;-76
2024/01/23 06:59:55;;;;;;;95.97;49.23;;;;;;;-6.73;59.38;95800.50;5048443;28;20271;-75
2024/01/23 07:02:21;;;;;;;96.23;46.93;;;;;;;-6.76;58.69;95798.84;5047638;28;20218;-75
2024/01/23 07:04:46;;;;;;;99.73;49.90;;;;;;;-6.74;58.67;95793.69;5051475;28;20222;-76
2024/01/23 07:07:12;;;;;;;92.53;47.70;;;;;;;-6.71;58.58;95786.81;5050934;28;20251;-79
2024/01/23 07:09:37;;;;;;;90.00;47.87;;;;;;;-6.55;57.65;95781.38;5047257;28;20274;-78
2024/01/23 07:12:06;;;;;;;91.63;49.53;;;;;;;-6.51;57.79;95793.25;5048865;28;20189;-73
2024/01/23 07:14:31;;;;;;;93.57;46.77;;;;;;;-6.44;58.18;95784.59;5045882;28;20209;-76
2024/01/23 07:16:57;;;;;;;92.17;49.60;;;;;;;-6.44;58.27;95772.63;5045684;28;20218;-76
2024/01/23 07:19:22;;;;;;;93.60;46.93;;;;;;;-6.27;57.79;95768.88;5040996;28;20225;-74
2024/01/23 07:21:48;;;;;;;100.73;49.67;;;;;;;-6.18;58.35;95762.72;5042557;28;20264;-76
2024/01/23 07:24:13;;;;;;;98.43;46.97;;;;;;;-6.15;58.19;95753.25;5051025;28;20277;-75
2024/01/23 07:26:39;;;;;;;104.87;49.03;;;;;;;-6.00;57.41;95752.06;5045800;28;20177;-74
2024/01/23 07:29:04;;;;;;;105.63;51.33;;;;;;;-5.91;57.94;95758.66;5047833;28;20210;-76
2024/01/23 07:31:30;;;;;;;109.83;51.47;;;;;;;-5.72;57.59;95759.06;5049274;28;20218;-76
2024/01/23 07:33:56;;;;;;;90.97;43.53;;;;;;;-5.74;56.96;95771.09;5046053;28;20231;-75
2024/01/23 07:36:21;;;;;;;130.50;65.23;;;;;;;-5.82;57.42;95774.69;5050622;28;20235;-77
2024/01/23 07:38:47;;;;;;;99.77;45.27;;;;;;;-5.97;57.90;95779.31;5052403;28;20217;-76
2024/01/23 07:41:12;;;;;;;106.27;48.73;;;;;;;-5.83;58.00;95782.38;5051004;28;20233;-74
2024/01/23 07:43:38;;;;;;;95.40;44.43;;;;;;;-5.41;56.40;95779.69;5044762;28;20316;-74
2024/01/23 07:46:04;;;;;;;99.60;43.47;;;;;;;-5.73;57.52;95781.31;5047835;28;20274;-77
2024/01/23 07:48:29;;;;;;;98.03;44.63;;;;;;;-5.49;57.83;95781.59;5051619;28;20345;-77
2024/01/23 07:50:54;;;;;;;101.80;45.93;;;;;;;-5.28;57.37;95778.53;5050735;28;20178;-74
2024/01/23 07:53:20;;;;;;;103.97;44.80;;;;;;;-5.10;56.52;95770.38;5048141;28;20218;-74
2024/01/23 07:55:46;;;;;;;95.43;45.40;;;;;;;-5.21;57.04;95774.06;5042206;28;20229;-74
2024/01/23 07:58:13;;;;;;;89.83;46.63;;;;;;;-5.20;57.32;95775.78;5049892;28;20253;-75
2024/01/23 08:00:41;;;;;;;104.87;46.97;;;;;;;-5.13;56.99;95764.50;5049356;28;20234;-74
2024/01/23 08:03:06;;;;;;;95.23;48.57;;;;;;;-4.90;56.35;95772.41;5055563;28;20193;-74
2024/01/23 08:05:32;;;;;;;103.60;51.80;;;;;;;-4.95;57.11;95779.38;5039528;28;20225;-74
2024/01/23 08:07:57;;;;;;;109.90;52.07;;;;;;;-5.15;57.42;95761.94;5045314;28;20225;-76
2024/01/23 08:10:24;;;;;;;102.53;50.87;;;;;;;-5.04;58.03;95769.38;5042978;28;20224;-75
2024/01/23 08:12:50;;;;;;;100.27;50.27;;;;;;;-4.83;57.00;95782.53;5052771;28;20259;-72
2024/01/23 08:15:17;;;;;;;108.23;47.13;;;;;;;-4.52;56.10;95774.81;5047531;28;20185;-72
2024/01/23 08:17:43;;;;;;;104.43;49.60;;;;;;;-4.61;56.48;95757.94;5044999;28;20232;-72
2024/01/23 08:20:10;;;;;;;112.20;52.77;;;;;;;-4.62;56.88;95770.81;5044098;28;20234;-73
2024/01/23 08:22:35;;;;;;;118.27;55.70;;;;;;;-4.39;56.72;95765.06;5033278;28;20305;-74
2024/01/23 08:25:01;;;;;;;109.30;55.87;;;;;;;-4.18;56.50;95769.56;5051559;28;20316;-72
2024/01/23 08:27:27;;;;;;;100.20;55.00;;;;;;;-4.16;55.74;95777.25;5049515;28;20213;-72
2024/01/23 08:29:52;;;;;;;114.07;55.37;;;;;;;-4.26;56.12;95771.53;5043966;28;20304;-74
2024/01/23 08:32:18;;;;;;;108.77;56.20;;;;;;;-4.23;55.80;95774.00;5042229;28;20234;-73
2024/01/23 08:34:43;;;;;;;117.67;56.20;;;;;;;-4.21;55.15;95778.19;5042918;28;20225;-74
2024/01/23 08:37:08;;;;;;;116.80;56.37;;;;;;;-4.47;55.38;95772.97;5047072;28;20325;-73
2024/01/23 08:39:34;;;;;;;116.97;57.80;;;;;;;-4.38;55.44;95772.72;5050842;28;20265;-74
2024/01/23 08:41:59;;;;;;;110.90;57.00;;;;;;;-4.48;55.09;95763.59;5045405;28;20186;-73
2024/01/23 08:44:25;;;;;;;115.07;58.70;;;;;;;-4.48;55.45;95774.69;5051745;28;20213;-80
2024/01/23 08:46:51;;;;;;;115.07;58.07;;;;;;;-4.43;54.91;95775.41;5046569;28;20225;-77
2024/01/23 08:49:16;;;;;;;108.37;57.47;;;;;;;-4.37;54.85;95776.97;5044208;28;20225;-74
2024/01/23 08:51:42;;;;;;;110.97;57.70;;;;;;;-4.24;54.78;95768.03;5044003;28;20221;-76
2024/01/23 08:54:08;;;;;;;107.53;57.63;;;;;;;-4.36;55.18;95773.50;5048382;28;20204;-73
2024/01/23 08:56:33;;;;;;;121.40;58.63;;;;;;;-4.35;55.51;95769.22;5056732;28;20221;-75
2024/01/23 08:58:58;;;;;;;115.10;58.47;;;;;;;-4.17;55.38;95768.69;5040540;28;20237;-76
2024/01/23 09:01:24;;;;;;;113.03;58.47;;;;;;;-3.95;55.06;95779.19;5046288;28;20324;-77
2024/01/23 09:03:50;;;;;;;119.30;58.77;;;;;;;-3.90;54.71;95763.59;5050819;28;20225;-78
2024/01/23 09:06:15;;;;;;;116.67;58.57;;;;;;;-4.04;54.45;95744.31;5037566;28;20293;-76
2024/01/23 09:08:42;;;;;;;110.27;57.50;;;;;;;-3.83;54.00;95753.09;5046372;28;20189;-76
2024/01/23 09:11:08;;;;;;;104.80;54.37;;;;;;;-3.90;55.08;95746.47;5037034;28;20226;-74
2024/01/23 09:13:34;;;;;;;111.70;56.30;;;;;;;-3.79;54.80;95748.72;5050274;28;20226;-77
2024/01/23 09:16:00;;;;;;;112.27;58.40;;;;;;;-3.56;54.83;95743.66;5046222;28;20226;-75
2024/01/23 09:18:27;;;;;;;107.57;57.57;;;;;;;-3.53;54.12;95744.47;5048782;28;20190;-77
2024/01/23 09:20:53;;;;;;;111.00;60.10;;;;;;;-3.37;53.91;95745.66;5051244;28;20225;-77
2024/01/23 09:23:19;;;;;;;115.37;57.97;;;;;;;-3.41;53.62;95728.66;5049024;28;20230;-74
2024/01/23 09:25:45;;;;;;;114.97;58.97;;;;;;;-3.42;54.77;95744.97;5037681;28;20218;-77
2024/01/23 09:28:10;;;;;;;117.57;59.90;;;;;;;-3.59;55.49;95720.63;5044270;28;20226;-78
2024/01/23 09:30:37;;;;;;;109.53;59.73;;;;;;;-3.20;54.78;95735.66;5047603;28;20225;-78
2024/01/23 09:33:02;;;;;;;114.83;59.57;;;;;;;-3.24;55.84;95723.78;5043329;28;20186;-83
2024/01/23 09:35:30;;;;;;;114.47;62.53;;;;;;;-3.13;54.98;95729.44;5050992;28;20258;-83
2024/01/23 09:37:56;;;;;;;112.57;58.80;;;;;;;-2.98;55.33;95732.38;5045832;28;20300;-78
2024/01/23 09:40:21;;;;;;;117.80;59.50;;;;;;;-2.78;53.92;95741.94;5045174;28;20237;-77
2024/01/23 09:42:47;;;;;;;107.10;55.53;;;;;;;-2.67;53.07;95717.53;5041305;28;20233;-77
2024/01/23 09:45:17;;;;;;;112.67;60.43;;;;;;;-2.86;53.36;95715.66;5041543;28;20219;-78
2024/01/23 09:47:47;;;;;;;116.03;60.60;;;;;;;-2.83;52.97;95723.25;5035104;28;20186;-77
2024/01/23 09:50:15;;;;;;;108.20;58.57;;;;;;;-2.81;53.24;95714.59;5049261;28;20209;-76
2024/01/23 09:52:43;;;;;;;107.23;56.40;;;;;;;-2.91;53.39;95693.50;5048621;28;20225;-81
2024/01/23 09:55:09;;;;;;;111.93;59.50;;;;;;;-2.56;52.54;95704.28;5043068;28;20226;-81
2024/01/23 09:57:35;;;;;;;109.03;59.60;;;;;;;-2.73;53.03;95711.75;5045494;28;20320;-81
2024/01/23 10:00:01;;;;;;;102.40;57.20;;;;;;;-3.00;54.09;95701.53;5051038;28;20292;-79
2024/01/23 10:02:28;;;;;;;111.53;63.93;;;;;;;-3.14;53.78;95701.19;5044851;28;20308;-80
2024/01/23 10:04:54;;;;;;;112.90;61.40;;;;;;;-3.00;54.55;95700.69;5051498;28;20233;-80
2024/01/23 10:07:20;;;;;;;114.57;63.50;;;;;;;-2.82;54.22;95676.88;5048817;28;20233;-79
2024/01/23 10:09:48;;;;;;;112.80;63.00;;;;;;;-2.64;53.22;95690.84;5049338;28;20240;-80
2024/01/23 10:12:15;;;;;;;107.13;59.17;;;;;;;-2.50;53.13;95703.22;5050222;28;20189;-82
2024/01/23 10:14:43;;;;;;;105.30;61.67;;;;;;;-2.22;53.65;95698.72;5045976;28;20190;-80
2024/01/23 10:17:09;;;;;;;107.47;59.27;;;;;;;-2.07;53.27;95683.56;5051133;28;20240;-81
2024/01/23 10:19:35;;;;;;;110.20;64.03;;;;;;;-2.19;53.31;95661.69;5049534;28;20225;-80
2024/01/23 10:22:00;;;;;;;120.30;63.87;;;;;;;-1.86;52.49;95669.00;5042936;28;20263;-76
2024/01/23 10:24:29;;;;;;;122.63;66.70;;;;;;;-1.80;52.14;95650.69;5051740;28;20201;-77
2024/01/23 10:26:54;;;;;;;106.77;60.93;;;;;;;-1.65;52.17;95659.56;5053421;28;20189;-75
2024/01/23 10:29:20;;;;;;;114.97;65.13;;;;;;;-1.57;52.59;95655.75;5050023;28;20217;-76
2024/01/23 10:31:46;;;;;;;116.50;66.93;;;;;;;-1.37;52.33;95646.34;5047958;28;20221;-75
2024/01/23 10:34:12;;;;;;;119.63;64.60;;;;;;;-1.28;52.11;95648.56;5049316;28;20254;-76
2024/01/23 10:36:41;;;;;;;119.43;68.43;;;;;;;-0.95;51.57;95655.75;5053066;28;20229;-78
2024/01/23 10:39:08;;;;;;;115.60;66.07;;;;;;;-1.14;51.96;95642.81;5048918;28;20206;-76
2024/01/23 10:41:34;;;;;;;116.60;69.77;;;;;;;-1.06;52.06;95634.75;5050353;28;20229;-76
2024/01/23 10:44:03;;;;;;;118.43;69.77;;;;;;;-0.76;51.14;95637.72;5053281;28;20229;-77
2024/01/23 10:46:30;;;;;;;129.23;75.43;;;;;;;-0.82;51.21;95635.41;5046683;28;20343;-77
2024/01/23 10:48:56;;;;;;;128.23;72.60;;;;;;;-0.68;50.47;95633.88;5045972;28;20229;-77
2024/01/23 10:51:23;;;;;;;125.37;75.30;;;;;;;-0.70;49.66;95627.09;5043628;28;20194;-77
2024/01/23 10:53:57;;;;;;;123.70;73.00;;;;;;;-0.74;50.49;95634.16;5043858;28;20186;-76
2024/01/23 10:56:24;;;;;;;127.57;73.83;;;;;;;-0.73;51.24;95624.66;5049735;28;20225;-75
2024/01/23 10:59:00;;;;;;;131.43;73.63;;;;;;;-0.72;51.43;95624.59;5046111;28;20245;-76
2024/01/23 11:01:34;;;;;;;131.87;76.47;;;;;;;-0.52;50.34;95615.13;5045406;28;20391;-77
2024/01/23 11:04:00;;;;;;;135.80;76.77;;;;;;;-0.70;50.42;95611.59;5047012;28;20232;-77
2024/01/23 11:06:32;;;;;;;133.13;76.60;;;;;;;-0.72;50.31;95600.53;5044824;28;20197;-76
2024/01/23 11:09:22;;;;;;;122.50;75.07;;;;;;;-0.63;50.32;95594.94;5051377;28;20181;-77